Mc Neal, Arizona
Current Conditions -  °F | °C
As of 11:56 AM on Thursday 23 Oct 2014 (Local Time) from KDUG Reporting Station
Clear Clear  
Wind Chill: 79°   Ceiling: Unl
Heat Index: 79°   Visibility: 10mi
Dew Point: 47°   Wind: 6mph
Humidity: 32%   Direction: 190°S
Pressure: 30.18"   Gusts: NA
Location:  31.4669°N, 109.689°W
Report Text: KDUG 231856Z AUTO 19005KT 10SM CLR 26/08 A3018 RMK AO2 SLP166 T02610083
Loading
Personal Weather Stations






























Interactive Weather Map
Tropical Storm Tracking
New forecast layout! Learn more

10-Day Weather Forecast

Advertisements
Track Severe Weather on mobile